Time;durP1;ratioP1;P1;durP2;ratioP2;P2;SDS_P1;SDS_P2;PMS_P1;PMS_P2;Temp;Humidity;BMP_temperature;BMP_pressure;BME280_temperature;BME280_humidity;BME280_pressure;Samples;Min_cycle;Max_cycle;Signal;HPM_P1;HPM_P2
2023/10/23 00:01:15;;;;;;;5.83;2.30;;;10.20;99.90;;;;;;4919244;28;20191;-71
2023/10/23 00:03:41;;;;;;;4.73;2.13;;;10.20;99.90;;;;;;4917610;28;20325;-71
2023/10/23 00:06:06;;;;;;;3.97;2.10;;;10.20;99.90;;;;;;4922602;28;20195;-71
2023/10/23 00:08:32;;;;;;;7.40;1.50;;;10.20;99.90;;;;;;4917271;28;20188;-71
2023/10/23 00:10:57;;;;;;;3.30;1.30;;;10.20;99.90;;;;;;4926464;28;20242;-71
2023/10/23 00:13:23;;;;;;;2.33;1.30;;;10.20;99.90;;;;;;4917477;28;20215;-71
2023/10/23 00:15:48;;;;;;;2.97;1.80;;;10.10;99.90;;;;;;4926566;28;20195;-71
2023/10/23 00:18:14;;;;;;;4.33;2.30;;;10.10;99.90;;;;;;4922031;28;20185;-72
2023/10/23 00:20:40;;;;;;;3.23;1.80;;;10.00;99.90;;;;;;4916050;28;20581;-71
2023/10/23 00:23:06;;;;;;;3.93;1.80;;;10.00;99.90;;;;;;4920333;28;20263;-71
2023/10/23 00:25:31;;;;;;;5.73;1.97;;;10.00;99.90;;;;;;4929929;28;21250;-71
2023/10/23 00:27:57;;;;;;;7.50;2.33;;;10.00;99.90;;;;;;4929553;28;20207;-71
2023/10/23 00:30:23;;;;;;;5.23;2.00;;;10.10;99.90;;;;;;4999900;28;20643;-71
2023/10/23 00:32:48;;;;;;;6.33;2.30;;;10.10;99.90;;;;;;4924788;28;20215;-70
2023/10/23 00:35:14;;;;;;;6.17;2.70;;;10.00;99.90;;;;;;4911242;28;20652;-71
2023/10/23 00:37:39;;;;;;;5.77;2.60;;;10.10;99.90;;;;;;4911237;28;20194;-71
2023/10/23 00:40:06;;;;;;;5.17;2.30;;;10.10;99.90;;;;;;4911667;28;20216;-72
2023/10/23 00:42:31;;;;;;;3.50;1.87;;;10.00;99.90;;;;;;4925484;28;20203;-72
2023/10/23 00:44:57;;;;;;;9.17;1.73;;;10.00;99.90;;;;;;4932177;28;20191;-71
2023/10/23 00:47:24;;;;;;;5.00;2.40;;;10.10;99.90;;;;;;4925282;28;20301;-71
2023/10/23 00:49:50;;;;;;;7.80;2.20;;;10.10;99.90;;;;;;4925274;28;20203;-71
2023/10/23 00:52:15;;;;;;;4.27;2.50;;;10.20;99.90;;;;;;4929695;28;20212;-71
2023/10/23 00:54:41;;;;;;;4.90;2.50;;;10.20;99.90;;;;;;4920810;28;20404;-71
2023/10/23 00:57:08;;;;;;;7.50;2.53;;;10.20;99.90;;;;;;4922892;28;20277;-71
2023/10/23 00:59:34;;;;;;;7.77;2.33;;;10.20;99.90;;;;;;4927323;28;20215;-72
2023/10/23 01:02:00;;;;;;;6.10;2.17;;;10.20;99.90;;;;;;4924166;28;20196;-72
2023/10/23 01:04:26;;;;;;;5.67;2.40;;;10.20;99.90;;;;;;4913693;28;20275;-72
2023/10/23 01:06:52;;;;;;;3.83;2.37;;;10.20;99.90;;;;;;5011544;28;20202;-71
2023/10/23 01:09:18;;;;;;;3.27;2.00;;;10.20;99.90;;;;;;4914065;28;20294;-71
2023/10/23 01:11:44;;;;;;;4.73;2.53;;;10.20;99.90;;;;;;4914177;28;20311;-71
2023/10/23 01:14:09;;;;;;;5.30;2.63;;;10.20;99.90;;;;;;4913480;28;20684;-71
2023/10/23 01:16:35;;;;;;;6.40;2.77;;;10.20;99.90;;;;;;4913727;28;20587;-71
2023/10/23 01:19:01;;;;;;;6.83;2.70;;;10.20;99.90;;;;;;4914079;28;20211;-71
2023/10/23 01:21:27;;;;;;;5.03;2.20;;;10.20;99.90;;;;;;4914085;28;20637;-72
2023/10/23 01:23:54;;;;;;;9.43;2.50;;;10.20;99.90;;;;;;4913314;28;20191;-71
2023/10/23 01:26:20;;;;;;;3.40;2.30;;;10.20;99.90;;;;;;4917461;28;20180;-71
2023/10/23 01:28:45;;;;;;;26.43;2.53;;;10.10;99.90;;;;;;4932316;28;20656;-71
2023/10/23 01:31:11;;;;;;;4.20;2.67;;;10.10;99.90;;;;;;4924652;28;20246;-70
2023/10/23 01:33:36;;;;;;;7.37;2.10;;;10.00;99.90;;;;;;4925956;28;20692;-71
2023/10/23 01:36:02;;;;;;;6.20;2.27;;;10.00;99.90;;;;;;4921311;28;20204;-71
2023/10/23 01:38:28;;;;;;;9.17;2.10;;;10.00;99.90;;;;;;4921354;28;20190;-71
2023/10/23 01:40:53;;;;;;;6.47;2.50;;;10.00;99.90;;;;;;4921251;28;20214;-71
2023/10/23 01:43:19;;;;;;;3.87;2.43;;;10.00;99.90;;;;;;4915333;28;20191;-71
2023/10/23 01:45:44;;;;;;;3.07;2.07;;;10.00;99.90;;;;;;4932224;28;20215;-71
2023/10/23 01:48:10;;;;;;;3.57;1.97;;;10.00;99.90;;;;;;4931802;28;20222;-71
2023/10/23 01:50:36;;;;;;;5.50;2.00;;;9.90;99.90;;;;;;4926423;28;20212;-71
2023/10/23 01:53:02;;;;;;;4.13;1.80;;;9.90;99.90;;;;;;4919895;28;20220;-71
2023/10/23 01:55:27;;;;;;;5.30;2.13;;;9.90;99.90;;;;;;4925767;28;20567;-71
2023/10/23 01:57:55;;;;;;;7.00;2.83;;;9.90;99.90;;;;;;4924088;28;20317;-70
2023/10/23 02:00:21;;;;;;;4.30;1.70;;;9.80;99.90;;;;;;4917157;28;20199;-71
2023/10/23 02:02:47;;;;;;;10.93;2.30;;;9.80;99.90;;;;;;4917247;28;20249;-71
2023/10/23 02:05:12;;;;;;;8.23;2.30;;;9.80;99.90;;;;;;4930582;28;20265;-71
2023/10/23 02:07:38;;;;;;;3.73;2.33;;;9.80;99.90;;;;;;4924277;28;20192;-72
2023/10/23 02:10:03;;;;;;;4.70;2.33;;;9.80;99.90;;;;;;4929897;28;20301;-71
2023/10/23 02:12:29;;;;;;;7.50;2.67;;;9.80;99.90;;;;;;4918060;28;20226;-71
2023/10/23 02:14:55;;;;;;;6.03;2.27;;;9.80;99.90;;;;;;4930690;28;20218;-71
2023/10/23 02:17:21;;;;;;;3.47;2.30;;;9.80;99.90;;;;;;4923178;28;20218;-71
2023/10/23 02:19:47;;;;;;;9.20;2.90;;;9.80;99.90;;;;;;4924810;28;20232;-71
2023/10/23 02:22:13;;;;;;;4.23;2.37;;;9.80;99.90;;;;;;4930839;28;20237;-71
2023/10/23 02:24:39;;;;;;;7.13;2.60;;;9.90;99.90;;;;;;4925071;28;20196;-71
2023/10/23 02:27:04;;;;;;;5.10;2.53;;;9.90;99.90;;;;;;4928298;28;20600;-72
2023/10/23 02:29:30;;;;;;;3.70;2.30;;;9.90;99.90;;;;;;4913068;28;20215;-71
2023/10/23 02:31:55;;;;;;;8.83;2.50;;;9.80;99.90;;;;;;4926799;28;20680;-71
2023/10/23 02:34:21;;;;;;;5.67;2.63;;;9.90;99.90;;;;;;4923679;28;20188;-71
2023/10/23 02:36:47;;;;;;;4.60;2.63;;;9.90;99.90;;;;;;4924836;28;20204;-70
2023/10/23 02:39:12;;;;;;;5.47;3.03;;;9.90;99.90;;;;;;4912801;28;20214;-72
2023/10/23 02:41:38;;;;;;;3.97;2.37;;;9.90;99.90;;;;;;4911617;28;20200;-71
2023/10/23 02:44:04;;;;;;;6.10;2.40;;;9.90;99.90;;;;;;4912039;28;20283;-71
2023/10/23 02:46:35;;;;;;;5.60;2.70;;;9.90;99.90;;;;;;4918032;28;20199;-71
2023/10/23 02:49:02;;;;;;;5.73;2.47;;;9.90;99.90;;;;;;4914726;28;20212;-71
2023/10/23 02:51:28;;;;;;;4.93;2.30;;;9.90;99.90;;;;;;4924599;28;20187;-71
2023/10/23 02:53:54;;;;;;;7.80;2.60;;;9.90;99.90;;;;;;4922568;28;20571;-70
2023/10/23 02:56:20;;;;;;;3.87;2.47;;;9.90;99.90;;;;;;4922519;28;20191;-71
2023/10/23 02:58:45;;;;;;;8.03;2.60;;;9.90;99.90;;;;;;4916754;28;20187;-70
2023/10/23 03:01:16;;;;;;;5.80;2.50;;;9.90;99.90;;;;;;4927685;28;20187;-71
2023/10/23 03:03:43;;;;;;;5.97;2.77;;;9.90;99.90;;;;;;4925930;28;20707;-71
2023/10/23 03:06:09;;;;;;;5.40;2.27;;;9.90;99.90;;;;;;4922901;28;20196;-71
2023/10/23 03:08:34;;;;;;;7.07;2.90;;;9.90;99.90;;;;;;4999266;28;20195;-71
2023/10/23 03:11:00;;;;;;;5.93;2.80;;;10.00;99.90;;;;;;4912280;28;20231;-71
2023/10/23 03:13:26;;;;;;;8.53;2.60;;;10.00;99.90;;;;;;4911718;28;20699;-71
2023/10/23 03:15:51;;;;;;;8.73;3.13;;;10.00;99.90;;;;;;4912490;28;20188;-71
2023/10/23 03:18:17;;;;;;;6.40;2.63;;;10.00;99.90;;;;;;4912359;28;20913;-71
2023/10/23 03:20:43;;;;;;;6.93;3.00;;;10.00;99.90;;;;;;4912229;28;20207;-71
2023/10/23 03:23:08;;;;;;;6.90;2.83;;;9.90;99.90;;;;;;4919384;28;20200;-71
2023/10/23 03:25:34;;;;;;;8.30;2.70;;;9.90;99.90;;;;;;4925001;28;20539;-71
2023/10/23 03:28:00;;;;;;;5.60;3.10;;;9.90;99.90;;;;;;4922080;28;20192;-71
2023/10/23 03:30:25;;;;;;;6.17;2.70;;;9.90;99.90;;;;;;4912028;28;20231;-71
2023/10/23 03:32:51;;;;;;;5.87;2.70;;;10.00;99.90;;;;;;4911373;28;20279;-70
2023/10/23 03:35:16;;;;;;;6.60;2.90;;;10.00;99.90;;;;;;4911967;28;20241;-71
2023/10/23 03:37:42;;;;;;;5.60;2.83;;;10.00;99.90;;;;;;4912169;28;20275;-71
2023/10/23 03:40:10;;;;;;;5.20;2.47;;;10.00;99.90;;;;;;4911991;28;20227;-72
2023/10/23 03:42:36;;;;;;;5.57;2.90;;;10.00;99.90;;;;;;4911939;28;20188;-72
2023/10/23 03:45:02;;;;;;;5.70;2.70;;;10.00;99.90;;;;;;4911359;28;20207;-71
2023/10/23 03:47:27;;;;;;;5.33;2.50;;;10.00;99.90;;;;;;4911989;28;20656;-71
2023/10/23 03:49:53;;;;;;;6.90;2.73;;;10.00;99.90;;;;;;4911737;28;20273;-71
2023/10/23 03:52:19;;;;;;;6.73;2.43;;;10.00;99.90;;;;;;4915048;28;20574;-71
2023/10/23 03:54:44;;;;;;;4.80;2.37;;;10.00;99.90;;;;;;4922203;28;20684;-71
2023/10/23 03:57:10;;;;;;;5.10;2.80;;;10.00;99.90;;;;;;4930137;28;20198;-72
2023/10/23 03:59:35;;;;;;;5.80;2.87;;;10.10;99.90;;;;;;4998598;28;20242;-71
2023/10/23 04:02:01;;;;;;;5.73;2.50;;;10.00;99.90;;;;;;4993716;28;20665;-71
2023/10/23 04:04:26;;;;;;;4.27;2.50;;;10.00;99.90;;;;;;4925311;28;20196;-71
2023/10/23 04:06:52;;;;;;;4.07;2.70;;;9.90;99.90;;;;;;4906614;28;20664;-70
2023/10/23 04:09:17;;;;;;;6.20;2.57;;;9.90;99.90;;;;;;4926941;28;20234;-71
2023/10/23 04:11:43;;;;;;;3.57;2.13;;;9.90;99.90;;;;;;4919233;28;20290;-71
2023/10/23 04:14:09;;;;;;;3.67;2.00;;;9.90;99.90;;;;;;4926113;28;20203;-71
2023/10/23 04:16:34;;;;;;;5.50;2.20;;;9.90;99.90;;;;;;5004726;28;20222;-71
2023/10/23 04:19:00;;;;;;;8.57;2.83;;;9.90;99.90;;;;;;4913525;28;20247;-72
2023/10/23 04:21:26;;;;;;;4.70;2.70;;;9.90;99.90;;;;;;4911826;28;20184;-71
2023/10/23 04:23:51;;;;;;;7.17;3.40;;;9.90;99.90;;;;;;4910873;28;20219;-70
2023/10/23 04:26:17;;;;;;;8.67;4.00;;;9.90;99.90;;;;;;4994974;28;20270;-71
2023/10/23 04:28:42;;;;;;;6.03;3.07;;;9.90;99.90;;;;;;4916157;28;20192;-71
2023/10/23 04:31:08;;;;;;;7.60;3.60;;;9.90;99.90;;;;;;4911440;28;20800;-71
2023/10/23 04:33:34;;;;;;;10.00;4.00;;;9.90;99.90;;;;;;4910528;28;20204;-71
2023/10/23 04:36:00;;;;;;;5.67;3.43;;;9.90;99.90;;;;;;4911330;28;20652;-71
2023/10/23 04:38:25;;;;;;;9.43;3.83;;;9.90;99.90;;;;;;4911364;28;20184;-70
2023/10/23 04:40:55;;;;;;;5.57;3.67;;;10.00;99.90;;;;;;4911211;28;20269;-71
2023/10/23 04:43:21;;;;;;;10.40;3.50;;;10.00;99.90;;;;;;4910163;28;20571;-71
2023/10/23 04:45:48;;;;;;;8.17;4.03;;;10.00;99.90;;;;;;4911103;28;20652;-71
2023/10/23 04:48:14;;;;;;;8.70;3.50;;;10.10;99.90;;;;;;4921216;28;20192;-71
2023/10/23 04:50:40;;;;;;;12.37;4.17;;;10.00;99.90;;;;;;4923908;28;20371;-71
2023/10/23 04:53:06;;;;;;;8.97;4.17;;;10.00;99.90;;;;;;4909170;28;20636;-71
2023/10/23 04:55:33;;;;;;;7.93;4.10;;;10.10;99.90;;;;;;4923446;28;20187;-71
2023/10/23 04:57:59;;;;;;;10.73;4.03;;;10.10;99.90;;;;;;4928779;28;20748;-71
2023/10/23 05:00:25;;;;;;;9.10;4.50;;;10.10;99.90;;;;;;4929577;28;20199;-70
2023/10/23 05:02:51;;;;;;;6.77;3.97;;;10.10;99.90;;;;;;4920040;28;20195;-70
2023/10/23 05:05:16;;;;;;;15.33;6.23;;;10.10;99.90;;;;;;4921839;28;20218;-71
2023/10/23 05:07:42;;;;;;;14.00;6.43;;;10.10;99.90;;;;;;4922136;28;20671;-71
2023/10/23 05:10:09;;;;;;;9.60;5.00;;;10.10;99.90;;;;;;4927505;28;20345;-71
2023/10/23 05:12:38;;;;;;;8.57;4.80;;;10.20;99.90;;;;;;4911640;28;20285;-70
2023/10/23 05:15:05;;;;;;;8.27;4.33;;;10.10;99.90;;;;;;4917782;28;20196;-70
2023/10/23 05:17:30;;;;;;;8.03;4.20;;;10.20;99.90;;;;;;4917086;28;20180;-70
2023/10/23 05:19:56;;;;;;;9.20;4.33;;;10.20;99.90;;;;;;4910785;28;20212;-70
2023/10/23 05:22:21;;;;;;;9.33;4.13;;;10.20;99.90;;;;;;4901415;28;20568;-70
2023/10/23 05:24:48;;;;;;;13.00;4.27;;;10.20;99.90;;;;;;4917716;28;20192;-70
2023/10/23 05:27:14;;;;;;;8.83;4.40;;;10.20;99.90;;;;;;4919510;28;20196;-70
2023/10/23 05:29:40;;;;;;;10.67;4.80;;;10.20;99.90;;;;;;4919627;28;20211;-70
2023/10/23 05:32:06;;;;;;;11.23;4.83;;;10.20;99.90;;;;;;4924626;28;20211;-70
2023/10/23 05:34:33;;;;;;;14.07;4.67;;;10.20;99.90;;;;;;4919560;28;20191;-71
2023/10/23 05:36:58;;;;;;;12.17;4.70;;;10.30;99.90;;;;;;4929296;28;20187;-71
2023/10/23 05:39:24;;;;;;;11.50;5.20;;;10.30;99.90;;;;;;4933157;28;20743;-71
2023/10/23 05:41:49;;;;;;;10.83;4.43;;;10.30;99.90;;;;;;4924784;28;20203;-71
2023/10/23 05:44:15;;;;;;;11.57;4.20;;;10.30;99.90;;;;;;4923822;28;20202;-71
2023/10/23 05:46:40;;;;;;;9.60;4.30;;;10.30;99.90;;;;;;4926620;28;20274;-71
2023/10/23 05:49:06;;;;;;;15.93;4.90;;;10.30;99.90;;;;;;4922490;28;20599;-71
2023/10/23 05:51:31;;;;;;;8.10;4.40;;;10.30;99.90;;;;;;4932114;28;20706;-71
2023/10/23 05:53:57;;;;;;;7.93;4.37;;;10.30;99.90;;;;;;4997415;28;20627;-71
2023/10/23 05:56:23;;;;;;;8.47;4.33;;;10.40;99.90;;;;;;4921205;28;20608;-70
2023/10/23 05:58:50;;;;;;;13.60;4.63;;;10.40;99.90;;;;;;4927855;28;20539;-72
2023/10/23 06:01:16;;;;;;;14.33;4.97;;;10.40;99.90;;;;;;4924004;28;20188;-71
2023/10/23 06:03:42;;;;;;;17.87;5.23;;;10.40;99.90;;;;;;4931219;28;20195;-71
2023/10/23 06:06:08;;;;;;;20.00;7.33;;;10.40;99.90;;;;;;4923940;28;20253;-72
2023/10/23 06:08:34;;;;;;;15.63;7.73;;;10.40;99.90;;;;;;4919331;28;20225;-71
2023/10/23 06:11:00;;;;;;;14.63;6.13;;;10.40;99.90;;;;;;4927650;28;20601;-72
2023/10/23 06:13:26;;;;;;;16.93;6.53;;;10.40;99.90;;;;;;5001200;28;20290;-71
2023/10/23 06:15:52;;;;;;;22.10;6.10;;;10.40;99.90;;;;;;4927212;28;20218;-71
2023/10/23 06:18:18;;;;;;;19.00;6.40;;;10.40;99.90;;;;;;4923246;28;20233;-71
2023/10/23 06:20:44;;;;;;;23.00;6.20;;;10.40;99.90;;;;;;4917238;28;20215;-71
2023/10/23 06:23:10;;;;;;;16.63;6.33;;;10.40;99.90;;;;;;4910679;28;20192;-71
2023/10/23 06:25:35;;;;;;;10.97;6.57;;;10.50;99.90;;;;;;4920099;28;20191;-71
2023/10/23 06:28:02;;;;;;;15.70;6.37;;;10.50;99.90;;;;;;4928103;28;20244;-71
2023/10/23 06:30:28;;;;;;;12.13;5.37;;;10.50;99.90;;;;;;4930767;28;20210;-71
2023/10/23 06:32:54;;;;;;;16.20;5.47;;;10.50;99.90;;;;;;4930302;28;20215;-71
2023/10/23 06:35:19;;;;;;;13.10;5.13;;;10.50;99.90;;;;;;4919852;28;20184;-71
2023/10/23 06:37:45;;;;;;;19.27;5.20;;;10.50;99.90;;;;;;4918677;28;20266;-71
2023/10/23 06:40:10;;;;;;;12.33;4.73;;;10.60;99.90;;;;;;4922516;28;20302;-71
2023/10/23 06:42:36;;;;;;;11.70;5.60;;;10.60;99.90;;;;;;4925395;28;20560;-71
2023/10/23 06:45:03;;;;;;;18.70;5.47;;;10.70;99.90;;;;;;4919967;28;20238;-71
2023/10/23 06:47:29;;;;;;;15.20;5.80;;;10.70;99.90;;;;;;4918715;28;20188;-70
2023/10/23 06:49:54;;;;;;;17.00;6.43;;;10.80;99.90;;;;;;4919525;28;20654;-73
2023/10/23 06:52:20;;;;;;;17.50;7.03;;;10.80;99.90;;;;;;4930396;28;20576;-71
2023/10/23 06:54:45;;;;;;;27.00;8.20;;;10.90;99.90;;;;;;4930044;28;20219;-71
2023/10/23 06:57:11;;;;;;;15.53;7.87;;;11.00;99.90;;;;;;4922645;28;20188;-71
2023/10/23 06:59:36;;;;;;;12.63;6.57;;;11.00;99.90;;;;;;4930412;28;20269;-71
2023/10/23 07:02:02;;;;;;;15.87;5.83;;;11.00;99.90;;;;;;4921848;28;20262;-71
2023/10/23 07:04:28;;;;;;;16.90;6.57;;;11.10;99.90;;;;;;4919111;28;20250;-71
2023/10/23 07:06:54;;;;;;;18.00;7.10;;;11.10;99.90;;;;;;4926942;28;20190;-70
2023/10/23 07:09:20;;;;;;;14.93;5.97;;;11.20;99.90;;;;;;4930411;28;20249;-70
2023/10/23 07:11:49;;;;;;;16.80;6.40;;;11.20;99.90;;;;;;4923989;28;20654;-71
2023/10/23 07:14:15;;;;;;;19.50;6.27;;;11.30;99.90;;;;;;4926355;28;20688;-71
2023/10/23 07:16:41;;;;;;;33.80;11.80;;;11.30;99.90;;;;;;4919536;28;20218;-71
2023/10/23 07:19:06;;;;;;;22.73;6.97;;;11.30;99.90;;;;;;4927937;28;20211;-71
2023/10/23 07:21:32;;;;;;;16.23;6.07;;;11.30;99.90;;;;;;4930140;28;20191;-71
2023/10/23 07:23:58;;;;;;;17.30;5.73;;;11.30;99.90;;;;;;4921764;28;20194;-71
2023/10/23 07:26:24;;;;;;;13.70;4.60;;;11.40;99.90;;;;;;4984225;28;20194;-71
2023/10/23 07:28:50;;;;;;;15.27;5.23;;;11.40;99.90;;;;;;4925855;28;20191;-71
2023/10/23 07:31:16;;;;;;;17.13;5.67;;;11.50;99.90;;;;;;4922141;28;20188;-71
2023/10/23 07:33:42;;;;;;;15.27;6.10;;;11.50;99.90;;;;;;4929383;28;20215;-71
2023/10/23 07:36:10;;;;;;;15.67;5.87;;;11.60;99.90;;;;;;4922043;28;20191;-71
2023/10/23 07:38:38;;;;;;;11.27;4.80;;;11.70;99.90;;;;;;4929864;28;20636;-72
2023/10/23 07:41:04;;;;;;;7.60;4.50;;;11.80;99.90;;;;;;4921849;28;20215;-72
2023/10/23 07:43:30;;;;;;;14.23;4.70;;;11.90;99.90;;;;;;4921600;28;20195;-72
2023/10/23 07:45:56;;;;;;;11.07;5.50;;;11.90;99.90;;;;;;4929934;28;20199;-71
2023/10/23 07:48:24;;;;;;;11.87;5.30;;;12.00;99.90;;;;;;4911511;28;20192;-72
2023/10/23 07:50:50;;;;;;;8.73;4.30;;;12.00;99.90;;;;;;4910488;28;20273;-72
2023/10/23 07:53:16;;;;;;;9.97;4.60;;;12.10;99.90;;;;;;5000019;28;20206;-71
2023/10/23 07:55:42;;;;;;;10.83;4.27;;;12.10;99.90;;;;;;4924465;28;20652;-72
2023/10/23 07:58:08;;;;;;;13.30;4.17;;;12.20;99.90;;;;;;4920326;28;20564;-72
2023/10/23 08:00:34;;;;;;;10.30;4.37;;;12.20;99.90;;;;;;4917224;28;20219;-72
2023/10/23 08:02:59;;;;;;;8.30;4.00;;;12.20;99.90;;;;;;4917283;28;20188;-72
2023/10/23 08:05:25;;;;;;;15.30;3.50;;;12.20;99.90;;;;;;4926107;28;20191;-71
2023/10/23 08:07:51;;;;;;;8.23;3.80;;;12.20;99.90;;;;;;4918143;28;20560;-72
2023/10/23 08:10:17;;;;;;;6.23;3.60;;;12.20;99.90;;;;;;4918908;28;20377;-72
2023/10/23 08:12:42;;;;;;;9.93;3.40;;;12.20;99.90;;;;;;4910715;28;20215;-71
2023/10/23 08:15:08;;;;;;;8.97;3.30;;;12.30;99.90;;;;;;4894994;28;20191;-71
2023/10/23 08:17:34;;;;;;;8.33;3.00;;;12.20;99.90;;;;;;4917283;28;20334;-72
2023/10/23 08:19:59;;;;;;;6.70;2.87;;;12.20;99.90;;;;;;4918278;28;20306;-72
2023/10/23 08:22:25;;;;;;;4.37;2.20;;;12.40;99.90;;;;;;4911175;28;20282;-72
2023/10/23 08:24:51;;;;;;;9.23;3.70;;;12.40;99.90;;;;;;4918759;28;20560;-71
2023/10/23 08:27:16;;;;;;;13.67;4.67;;;12.40;99.90;;;;;;4909811;28;20192;-71
2023/10/23 08:29:42;;;;;;;15.20;4.30;;;12.50;99.90;;;;;;4910958;28;20258;-72
2023/10/23 08:32:07;;;;;;;8.07;2.27;;;12.50;99.90;;;;;;4910871;28;20215;-72
2023/10/23 08:34:33;;;;;;;4.00;1.67;;;12.50;99.90;;;;;;4917591;28;20274;-72
2023/10/23 08:36:58;;;;;;;3.13;1.60;;;12.40;99.90;;;;;;4918330;28;20188;-72
2023/10/23 08:39:25;;;;;;;5.77;2.10;;;12.60;99.90;;;;;;4928951;28;20576;-72
2023/10/23 08:41:50;;;;;;;11.63;2.97;;;12.50;99.90;;;;;;4922152;28;20194;-73
2023/10/23 08:44:17;;;;;;;14.27;4.03;;;12.70;99.90;;;;;;4919914;28;20203;-73
2023/10/23 08:46:43;;;;;;;6.83;1.80;;;12.80;99.90;;;;;;4915577;28;20234;-73
2023/10/23 08:49:09;;;;;;;2.97;1.60;;;12.80;99.90;;;;;;4911701;28;20212;-73
2023/10/23 08:51:36;;;;;;;2.67;1.63;;;12.80;99.90;;;;;;4916612;28;20191;-72
2023/10/23 08:54:12;;;;;;;3.30;1.40;;;13.00;99.90;;;;;;4924903;28;20229;-72
2023/10/23 08:56:41;;;;;;;2.00;1.30;;;13.20;99.90;;;;;;4910327;28;20540;-72
2023/10/23 08:59:09;;;;;;;2.90;1.17;;;13.10;99.90;;;;;;4917823;28;20208;-72
2023/10/23 09:01:35;;;;;;;4.10;1.40;;;13.20;99.90;;;;;;4909871;28;20219;-71
2023/10/23 09:04:01;;;;;;;2.37;1.10;;;13.20;99.90;;;;;;4919570;28;20203;-71
2023/10/23 09:06:26;;;;;;;11.37;4.17;;;13.30;99.90;;;;;;4928232;28;20668;-72
2023/10/23 09:08:52;;;;;;;5.83;1.40;;;13.40;99.90;;;;;;4919697;28;20311;-71
2023/10/23 09:11:18;;;;;;;7.33;1.33;;;13.60;99.90;;;;;;4916149;28;20685;-73
2023/10/23 09:13:43;;;;;;;3.67;1.30;;;13.80;99.90;;;;;;4918080;28;20214;-71
2023/10/23 09:16:10;;;;;;;4.23;1.60;;;14.00;99.90;;;;;;4913548;28;20192;-71
2023/10/23 09:18:46;;;;;;;4.57;1.37;;;14.30;99.90;;;;;;4913367;28;20671;-71
2023/10/23 09:21:12;;;;;;;4.57;1.30;;;14.50;99.90;;;;;;4913423;28;20184;-71
2023/10/23 09:24:07;;;;;;;3.40;1.10;;;14.60;99.90;;;;;;4911660;28;20200;-71
2023/10/23 09:26:33;;;;;;;2.70;1.03;;;14.60;99.90;;;;;;4912873;28;20210;-71
2023/10/23 09:28:58;;;;;;;4.10;1.43;;;14.50;99.90;;;;;;4911889;28;20192;-71
2023/10/23 09:31:24;;;;;;;6.43;1.27;;;14.40;99.90;;;;;;4913034;28;20204;-71
2023/10/23 09:33:51;;;;;;;5.13;1.40;;;14.40;99.90;;;;;;4917886;28;20222;-71
2023/10/23 09:36:17;;;;;;;5.23;1.47;;;14.20;99.90;;;;;;4916168;28;20184;-70
2023/10/23 09:38:54;;;;;;;3.93;1.50;;;13.90;99.90;;;;;;4931419;28;20194;-71
2023/10/23 09:41:21;;;;;;;5.37;1.60;;;13.80;99.90;;;;;;4913176;28;20192;-70
2023/10/23 09:43:48;;;;;;;3.63;1.50;;;14.00;99.90;;;;;;4926187;28;20202;-70
2023/10/23 09:46:14;;;;;;;4.30;1.40;;;14.10;99.90;;;;;;4922934;28;20199;-71
2023/10/23 09:48:44;;;;;;;9.77;1.10;;;14.40;99.90;;;;;;4926061;28;20261;-70
2023/10/23 09:51:15;;;;;;;5.83;1.33;;;14.40;99.90;;;;;;4929376;28;20193;-70
2023/10/23 09:53:48;;;;;;;2.83;1.20;;;14.50;99.90;;;;;;4930694;28;20812;-70
2023/10/23 09:56:19;;;;;;;5.77;1.93;;;14.40;99.90;;;;;;4928944;28;20210;-70
2023/10/23 09:58:57;;;;;;;6.53;1.47;;;14.40;99.90;;;;;;4911365;28;20192;-71
2023/10/23 10:01:35;;;;;;;3.90;1.37;;;14.50;99.90;;;;;;4931216;28;20186;-70
2023/10/23 10:04:13;;;;;;;4.50;1.40;;;14.30;99.90;;;;;;4929989;28;20179;-70
2023/10/23 10:06:44;;;;;;;4.93;1.83;;;14.10;99.90;;;;;;4926016;28;20215;-71
2023/10/23 10:09:12;;;;;;;6.17;1.67;;;14.30;99.90;;;;;;4928945;28;20631;-70
2023/10/23 10:11:42;;;;;;;5.67;1.30;;;14.20;99.90;;;;;;4925814;28;20183;-70
2023/10/23 10:14:08;;;;;;;4.90;1.40;;;14.20;99.90;;;;;;4919260;28;20187;-70
2023/10/23 10:16:34;;;;;;;7.47;1.80;;;14.00;99.90;;;;;;4916893;28;20278;-70
2023/10/23 10:19:00;;;;;;;5.70;1.60;;;14.10;99.90;;;;;;4930273;28;20274;-71
2023/10/23 10:21:30;;;;;;;6.20;1.60;;;14.10;99.90;;;;;;4930692;28;20196;-70
2023/10/23 10:23:58;;;;;;;10.07;1.50;;;14.30;99.90;;;;;;4922559;28;20229;-70
2023/10/23 10:26:25;;;;;;;4.67;1.70;;;14.50;99.90;;;;;;4930933;28;20188;-70
2023/10/23 10:28:53;;;;;;;7.07;1.47;;;14.80;99.90;;;;;;4930507;28;20199;-70
2023/10/23 10:31:21;;;;;;;4.27;1.80;;;15.10;99.90;;;;;;4996592;28;20187;-70
2023/10/23 10:33:47;;;;;;;6.63;1.47;;;15.20;99.90;;;;;;4917316;28;20268;-69
2023/10/23 10:36:14;;;;;;;6.63;1.30;;;15.40;99.90;;;;;;4929281;28;20199;-71
2023/10/23 10:38:41;;;;;;;4.67;1.73;;;15.30;99.90;;;;;;4925286;28;20277;-70
2023/10/23 10:41:27;;;;;;;9.90;1.87;;;15.00;99.90;;;;;;4920485;28;20214;-70
2023/10/23 10:43:53;;;;;;;6.43;1.63;;;14.80;99.90;;;;;;4922307;28;20210;-70
2023/10/23 10:46:22;;;;;;;4.83;1.63;;;14.70;99.90;;;;;;4912937;28;20192;-70
2023/10/23 10:48:49;;;;;;;8.67;1.90;;;14.60;99.90;;;;;;4922867;28;20587;-70
2023/10/23 10:51:17;;;;;;;8.03;2.30;;;14.70;99.90;;;;;;4920303;28;20534;-69
2023/10/23 10:53:45;;;;;;;5.77;1.77;;;14.80;99.90;;;;;;4911205;28;20669;-70
2023/10/23 10:56:10;;;;;;;6.13;2.10;;;14.90;99.90;;;;;;4920891;28;20201;-70
2023/10/23 10:58:38;;;;;;;5.30;1.87;;;15.20;99.90;;;;;;4922630;28;20187;-71
2023/10/23 11:01:04;;;;;;;5.80;1.90;;;15.10;99.90;;;;;;4929305;28;20668;-70
2023/10/23 11:03:30;;;;;;;3.50;1.57;;;15.00;99.90;;;;;;4918711;28;20206;-71
2023/10/23 11:05:56;;;;;;;8.30;2.03;;;15.10;99.90;;;;;;4925171;28;20194;-69
2023/10/23 11:08:22;;;;;;;6.20;2.00;;;15.30;99.90;;;;;;4915401;28;20383;-70
2023/10/23 11:10:47;;;;;;;7.60;2.20;;;15.40;99.90;;;;;;4916811;28;20266;-69
2023/10/23 11:13:14;;;;;;;9.57;2.30;;;15.40;99.90;;;;;;4920437;28;20211;-71
2023/10/23 11:15:41;;;;;;;9.37;2.50;;;15.50;99.90;;;;;;4922163;28;20190;-70
2023/10/23 11:18:06;;;;;;;8.93;1.90;;;15.60;99.90;;;;;;4929786;28;20184;-70
2023/10/23 11:20:32;;;;;;;4.50;2.07;;;15.60;99.90;;;;;;4999006;28;20690;-70
2023/10/23 11:22:58;;;;;;;8.27;2.53;;;15.50;99.90;;;;;;4925934;28;20561;-70
2023/10/23 11:25:23;;;;;;;10.70;2.47;;;15.50;99.90;;;;;;4918056;28;20184;-70
2023/10/23 11:27:52;;;;;;;9.70;1.93;;;15.30;99.90;;;;;;4919003;28;20682;-70
2023/10/23 11:30:18;;;;;;;7.57;2.33;;;15.40;99.90;;;;;;4928640;28;20242;-69
2023/10/23 11:32:47;;;;;;;8.43;2.10;;;15.40;99.90;;;;;;4923788;28;20710;-69
2023/10/23 11:35:12;;;;;;;9.53;2.30;;;15.60;99.90;;;;;;4927658;28;20238;-69
2023/10/23 11:37:39;;;;;;;9.17;2.17;;;15.60;99.90;;;;;;4917305;28;20302;-70
2023/10/23 11:40:06;;;;;;;11.87;2.43;;;15.60;99.90;;;;;;4911611;28;20354;-71
2023/10/23 11:42:46;;;;;;;9.13;2.00;;;15.80;99.90;;;;;;4929489;28;20561;-68
2023/10/23 11:45:12;;;;;;;5.43;1.70;;;15.70;99.90;;;;;;4927691;28;20289;-70
2023/10/23 11:47:38;;;;;;;7.43;2.00;;;15.70;99.90;;;;;;4923780;28;20187;-71
2023/10/23 11:50:13;;;;;;;9.90;2.40;;;15.50;99.90;;;;;;4928183;28;20687;-70
2023/10/23 11:52:49;;;;;;;6.33;1.73;;;15.40;99.90;;;;;;4916729;28;20203;-70
2023/10/23 18:49:38;;;;;;;5.80;3.40;;;11.80;99.90;;;;;;4917006;23;20630;-68
2023/10/23 18:52:03;;;;;;;6.93;3.00;;;11.80;99.90;;;;;;4911691;28;20254;-68
2023/10/23 18:54:32;;;;;;;9.97;3.03;;;11.80;99.90;;;;;;4911355;28;20187;-68
2023/10/23 18:56:59;;;;;;;8.03;3.20;;;11.80;99.90;;;;;;4912176;28;20675;-68
2023/10/23 18:59:25;;;;;;;14.77;3.13;;;11.80;99.90;;;;;;4912215;28;20204;-67
2023/10/23 19:01:51;;;;;;;11.20;2.93;;;11.70;99.90;;;;;;4912290;28;20534;-67
2023/10/23 19:04:17;;;;;;;9.23;2.80;;;11.70;99.90;;;;;;4911636;28;20617;-68
2023/10/23 19:06:42;;;;;;;8.13;3.00;;;11.70;99.90;;;;;;4904601;28;20215;-67
2023/10/23 19:09:08;;;;;;;9.77;2.73;;;11.70;99.90;;;;;;4912096;28;20261;-67
2023/10/23 19:11:34;;;;;;;7.83;3.10;;;11.70;99.90;;;;;;4912357;28;20851;-68
2023/10/23 19:14:00;;;;;;;10.67;3.50;;;11.70;99.90;;;;;;4911118;28;20215;-69
2023/10/23 19:16:25;;;;;;;8.87;2.90;;;11.70;99.90;;;;;;4912061;28;20261;-68
2023/10/23 19:18:51;;;;;;;7.47;3.10;;;11.70;99.90;;;;;;4912183;28;20696;-68
2023/10/23 19:21:16;;;;;;;7.47;2.53;;;11.70;99.90;;;;;;4911552;28;20278;-68
2023/10/23 19:23:43;;;;;;;7.83;2.80;;;11.60;99.90;;;;;;4906584;28;20219;-67
2023/10/23 19:26:09;;;;;;;5.33;2.40;;;11.50;99.90;;;;;;4909551;28;20188;-67
2023/10/23 19:28:35;;;;;;;10.60;3.00;;;11.50;99.90;;;;;;4911905;28;20212;-66
2023/10/23 19:31:22;;;;;;;14.43;3.40;;;11.60;99.90;;;;;;4911600;28;20522;-67
2023/10/23 19:33:49;;;;;;;11.40;3.10;;;11.60;99.90;;;;;;4906075;28;20638;-66
2023/10/23 19:36:17;;;;;;;10.80;3.10;;;11.60;99.90;;;;;;4911757;28;20219;-67